Rachel Carson — WDE6481 — position and weather

sailwx.info

Track history (hours):
 
Tides and Currents Weather Stations Pressure Air Temp Water Temp Dewpoint Dewpoint Depression Visibility Wind Speed Wind Dir Waves Ship Positions

Oceanographic research ship Rachel Carson (USA)

Owner: University of Maryland Center for Environmental Science Research Fleet Operations, Solomons, MD. More information available from US FCC via Universal Licensing System and Coast Guard Vessel Documentation Center.

Last reported at 2018-Apr-24 21:18 UTC. Time now 2018-Apr-25 02:43 UTC.
Position N 39°10' W 076°27'.

Length 24 m; draft 1.5 m.

Type: Other ship. MMSI: 367380790.

Date/timePositionNaut miles runAvg speedWind from/ knotsBaromVisibWave heightAir tempDewpointWater temp
2018-Apr-24 21:18N 39°10' W 076°27'621.8
2018-Apr-24 21:00N 39°14' W 076°33'2 4.7
2018-Apr-24 20:30N 39°16' W 076°36'0 0.6
2018-Apr-24 20:00N 39°16' W 076°35'1 2.7
2018-Apr-24 19:30N 39°15' W 076°34'0 1.0
2018-Apr-24 19:00N 39°15' W 076°33'1 1.5
2018-Apr-24 18:30N 39°15' W 076°32'0 0.3
2018-Apr-24 18:00N 39°15' W 076°32'1 1.3
2018-Apr-24 17:30N 39°14' W 076°32'0 0.0
2018-Apr-24 17:00N 39°14' W 076°32'1 1.1
2018-Apr-24 16:30N 39°14' W 076°31'1 1.9
2018-Apr-24 16:00N 39°14' W 076°32'2 4.8
2018-Apr-24 15:30N 39°12' W 076°35'1 1.4
2018-Apr-24 14:57N 39°12' W 076°34'0 0.8
2018-Apr-24 14:30N 39°12' W 076°34'1 2.9
2018-Apr-24 14:00N 39°13' W 076°34'0 0.2
2018-Apr-24 13:30N 39°13' W 076°34'0 0.5
2018-Apr-24 13:01N 39°13' W 076°34'2 3.1
2018-Apr-24 12:30N 39°13' W 076°32'1 1.3
2018-Apr-24 12:00N 39°13' W 076°32'1020.1
2018-Apr-24 11:29N 39°04' W 076°24'4 0.3
2018-Apr-23 23:29N 39°01' W 076°24'612.2
2018-Apr-23 23:01N 39°07' W 076°24'1019.1
2018-Apr-23 22:30N 39°14' W 076°32'1 1.2
2018-Apr-23 22:00N 39°15' W 076°33'1 2.3
2018-Apr-23 21:31N 39°15' W 076°34'2 3.7
2018-Apr-23 21:00N 39°17' W 076°35'0 1.0
2018-Apr-23 20:31N 39°16' W 076°35'0 0.7
2018-Apr-23 20:01N 39°16' W 076°35'0 0.5
2018-Apr-23 19:31N 39°16' W 076°35'0 0.7
2018-Apr-23 19:01N 39°16' W 076°34'0 0.5
2018-Apr-23 18:31N 39°16' W 076°34'1 1.0
2018-Apr-23 18:00N 39°15' W 076°34'3 5.7
2018-Apr-23 17:30N 39°13' W 076°32'0 0.8
2018-Apr-23 17:00N 39°13' W 076°31'0 0.2
2018-Apr-23 16:31N 39°13' W 076°31'1 1.2
2018-Apr-23 16:01N 39°12' W 076°31'0 0.6
2018-Apr-23 15:30N 39°12' W 076°31'0 0.5
2018-Apr-23 15:01N 39°12' W 076°30'3 6.5
2018-Apr-23 14:30N 39°10' W 076°27'1020.3
2018-Apr-23 14:00N 39°00' W 076°23'1 1.2
2018-Apr-23 13:28N 39°01' W 076°24'3 6.8
2018-Apr-23 13:00N 38°58' W 076°24'2421.1
2018-Apr-23 11:51N 38°33' W 076°24'  
Track history (hours):
 
Tides and Currents Weather Stations Pressure Air Temp Water Temp Dewpoint Dewpoint Depression Visibility Wind Speed Wind Dir Waves Ship Positions

Oceanographic research ship Rachel Carson (USA)

Owner: University of Maryland Center for Environmental Science Research Fleet Operations, Solomons, MD. More information available from US FCC via Universal Licensing System and Coast Guard Vessel Documentation Center.

Last reported at 2018-Apr-24 21:18 UTC. Time now 2018-Apr-25 02:43 UTC.
Position N 39°10' W 076°27'.

Length 24 m; draft 1.5 m.

Type: Other ship. MMSI: 367380790.

Date/timePositionNaut miles runAvg speedWind from/ knotsBaromVisibWave heightAir tempDewpointWater temp
2018-Apr-24 21:18N 39°10' W 076°27'621.8
2018-Apr-24 21:00N 39°14' W 076°33'2 4.7
2018-Apr-24 20:30N 39°16' W 076°36'0 0.6
2018-Apr-24 20:00N 39°16' W 076°35'1 2.7
2018-Apr-24 19:30N 39°15' W 076°34'0 1.0
2018-Apr-24 19:00N 39°15' W 076°33'1 1.5
2018-Apr-24 18:30N 39°15' W 076°32'0 0.3
2018-Apr-24 18:00N 39°15' W 076°32'1 1.3
2018-Apr-24 17:30N 39°14' W 076°32'0 0.0
2018-Apr-24 17:00N 39°14' W 076°32'1 1.1
2018-Apr-24 16:30N 39°14' W 076°31'1 1.9
2018-Apr-24 16:00N 39°14' W 076°32'2 4.8
2018-Apr-24 15:30N 39°12' W 076°35'1 1.4
2018-Apr-24 14:57N 39°12' W 076°34'0 0.8
2018-Apr-24 14:30N 39°12' W 076°34'1 2.9
2018-Apr-24 14:00N 39°13' W 076°34'0 0.2
2018-Apr-24 13:30N 39°13' W 076°34'0 0.5
2018-Apr-24 13:01N 39°13' W 076°34'2 3.1
2018-Apr-24 12:30N 39°13' W 076°32'1 1.3
2018-Apr-24 12:00N 39°13' W 076°32'1020.1
2018-Apr-24 11:29N 39°04' W 076°24'4 0.3
2018-Apr-23 23:29N 39°01' W 076°24'612.2
2018-Apr-23 23:01N 39°07' W 076°24'1019.1
2018-Apr-23 22:30N 39°14' W 076°32'1 1.2
2018-Apr-23 22:00N 39°15' W 076°33'1 2.3
2018-Apr-23 21:31N 39°15' W 076°34'2 3.7
2018-Apr-23 21:00N 39°17' W 076°35'0 1.0
2018-Apr-23 20:31N 39°16' W 076°35'0 0.7
2018-Apr-23 20:01N 39°16' W 076°35'0 0.5
2018-Apr-23 19:31N 39°16' W 076°35'0 0.7
2018-Apr-23 19:01N 39°16' W 076°34'0 0.5
2018-Apr-23 18:31N 39°16' W 076°34'1 1.0
2018-Apr-23 18:00N 39°15' W 076°34'3 5.7
2018-Apr-23 17:30N 39°13' W 076°32'0 0.8
2018-Apr-23 17:00N 39°13' W 076°31'0 0.2
2018-Apr-23 16:31N 39°13' W 076°31'1 1.2
2018-Apr-23 16:01N 39°12' W 076°31'0 0.6
2018-Apr-23 15:30N 39°12' W 076°31'0 0.5
2018-Apr-23 15:01N 39°12' W 076°30'3 6.5
2018-Apr-23 14:30N 39°10' W 076°27'1020.3
2018-Apr-23 14:00N 39°00' W 076°23'1 1.2
2018-Apr-23 13:28N 39°01' W 076°24'3 6.8
2018-Apr-23 13:00N 38°58' W 076°24'2421.1
2018-Apr-23 11:51N 38°33' W 076°24'  

Dump ship's entire track history